createdAt,value
2023-04-01T00:01:08.099Z,98340.97
2023-04-01T00:03:36.467Z,98329.53
2023-04-01T00:06:04.092Z,98321.59
2023-04-01T00:08:31.511Z,98318.94
2023-04-01T00:10:58.818Z,98326.88
2023-04-01T00:13:27.439Z,98311.03
2023-04-01T00:15:56.184Z,98330.41
2023-04-01T00:18:26.807Z,98323.38
2023-04-01T00:20:54.334Z,98318.97
2023-04-01T00:23:21.683Z,98331.28
2023-04-01T00:25:49.576Z,98325.09
2023-04-01T00:28:19.130Z,98323.34
2023-04-01T00:30:46.814Z,98310.16
2023-04-01T00:33:14.112Z,98313.69
2023-04-01T00:35:41.654Z,98309.28
2023-04-01T00:38:08.731Z,98306.66
2023-04-01T00:40:47.329Z,98311.91
2023-04-01T00:43:22.051Z,98307.50
2023-04-01T00:45:50.661Z,98305.78
2023-04-01T00:48:21.591Z,98312.81
2023-04-01T00:51:28.189Z,98303.13
2023-04-01T00:53:59.123Z,98299.63
2023-04-01T00:56:36.683Z,98302.25
2023-04-01T00:59:15.475Z,98303.13
2023-04-01T01:01:42.765Z,98302.22
2023-04-01T01:04:26.523Z,98296.97
2023-04-01T01:07:14.778Z,98290.81
2023-04-01T01:10:13.385Z,98303.13
2023-04-01T01:13:09.811Z,98297.84
2023-04-01T01:16:05.941Z,98299.59
2023-04-01T01:18:55.168Z,98304.00
2023-04-01T01:21:35.055Z,98302.22
2023-04-01T01:24:31.213Z,98311.06
2023-04-01T01:27:15.840Z,98307.53
2023-04-01T01:30:37.381Z,98304.03
2023-04-01T01:33:27.034Z,98303.16
2023-04-01T01:35:57.802Z,98308.41
2023-04-01T01:38:30.894Z,98305.78
2023-04-01T01:41:00.261Z,98306.66
2023-04-01T01:43:40.455Z,98313.69
2023-04-01T01:46:15.454Z,98305.75
2023-04-01T01:48:44.771Z,98307.53
2023-04-01T01:51:11.793Z,98306.66
2023-04-01T01:53:38.970Z,98308.44
2023-04-01T01:56:07.032Z,98302.25
2023-04-01T01:58:59.753Z,98304.88
2023-04-01T02:01:32.603Z,98304.00
2023-04-01T02:04:00.508Z,98291.69
2023-04-01T02:06:33.468Z,98283.75
2023-04-01T02:13:10.529Z,98290.81
2023-04-01T02:15:43.868Z,98290.81
2023-04-01T02:18:12.619Z,98282.00
2023-04-01T02:20:41.527Z,98287.31
2023-04-01T02:23:11.337Z,98285.53
2023-04-01T02:25:40.520Z,98268.81
2023-04-01T02:28:10.503Z,98267.09
2023-04-01T02:30:39.882Z,98268.84
2023-04-01T02:33:07.685Z,98272.34
2023-04-01T02:35:39.237Z,98267.88
2023-04-01T02:38:07.442Z,98267.94
2023-04-01T02:40:51.301Z,98267.97
2023-04-01T02:43:20.030Z,98268.84
2023-04-01T02:45:47.071Z,98274.09
2023-04-01T02:48:15.137Z,98279.38
2023-04-01T02:50:42.481Z,98277.63
2023-04-01T02:53:09.593Z,98274.97
2023-04-01T02:55:37.028Z,98274.09
2023-04-01T02:58:04.427Z,98275.84
2023-04-01T03:00:32.029Z,98278.44
2023-04-01T03:02:59.266Z,98278.41
2023-04-01T03:05:26.737Z,98281.94
2023-04-01T03:07:53.753Z,98283.69
2023-04-01T03:10:21.765Z,98282.81
2023-04-01T03:12:48.834Z,98291.69
2023-04-01T03:15:16.318Z,98284.59
2023-04-01T03:17:44.292Z,98293.38
2023-04-01T03:20:12.722Z,98284.56
2023-04-01T03:22:41.532Z,98296.88
2023-04-01T03:25:10.873Z,98296.84
2023-04-01T03:27:37.950Z,98297.75
2023-04-01T03:30:07.457Z,98297.72
2023-04-01T03:32:34.878Z,98298.59
2023-04-01T03:35:01.994Z,98298.63
2023-04-01T03:37:29.394Z,98288.91
2023-04-01T03:39:56.460Z,98299.47
2023-04-01T03:42:23.558Z,98305.63
2023-04-01T03:44:50.882Z,98302.13
2023-04-01T03:47:17.953Z,98310.06
2023-04-01T03:49:44.974Z,98302.97
2023-04-01T03:52:12.801Z,98309.13
2023-04-01T03:54:39.880Z,98310.91
2023-04-01T03:57:07.384Z,98321.41
2023-04-01T03:59:35.297Z,98318.78
2023-04-01T04:02:02.475Z,98321.44
2023-04-01T04:04:29.903Z,98325.78
2023-04-01T04:06:57.337Z,98328.41
2023-04-01T04:09:24.675Z,98336.34
2023-04-01T04:11:52.172Z,98333.69
2023-04-01T04:14:19.387Z,98333.69
2023-04-01T04:16:46.456Z,98340.72
2023-04-01T04:19:13.483Z,98331.94
2023-04-01T04:21:42.815Z,98337.16
2023-04-01T04:24:11.058Z,98338.91
2023-04-01T04:26:38.174Z,98343.22
2023-04-01T04:29:05.407Z,98342.47
2023-04-01T04:31:32.661Z,98344.19
2023-04-01T04:34:02.074Z,98346.84
2023-04-01T04:36:29.223Z,98350.44
2023-04-01T04:38:56.270Z,98353.97
2023-04-01T04:41:23.448Z,98355.66
2023-04-01T04:43:56.991Z,98353.97
2023-04-01T04:46:24.776Z,98348.66
2023-04-01T04:48:52.094Z,98355.66
2023-04-01T04:51:21.338Z,98356.56
2023-04-01T04:53:50.786Z,98344.25
2023-04-01T04:56:23.425Z,98356.56
2023-04-01T04:58:50.516Z,98357.50
2023-04-01T05:01:18.986Z,98353.03
2023-04-01T05:03:46.716Z,98365.28
2023-04-01T05:06:15.794Z,98360.91
2023-04-01T05:08:45.431Z,98356.59
2023-04-01T05:11:18.796Z,98362.69
2023-04-01T05:13:47.173Z,98362.66
2023-04-01T05:16:19.068Z,98363.50
2023-04-01T05:18:47.115Z,98355.63
2023-04-01T05:21:16.417Z,98360.94
2023-04-01T05:23:44.264Z,98358.28
2023-04-01T05:26:14.927Z,98360.91
2023-04-01T05:28:42.530Z,98354.81
2023-04-01T05:31:10.358Z,98357.47
2023-04-01T05:33:37.454Z,98358.31
2023-04-01T05:36:14.013Z,98360.13
2023-04-01T05:38:41.959Z,98361.03
2023-04-01T05:41:09.015Z,98362.06
2023-04-01T05:43:40.733Z,98362.09
2023-04-01T05:46:07.843Z,98370.03
2023-04-01T05:48:36.125Z,98366.50
2023-04-01T05:51:04.305Z,98375.28
2023-04-01T05:53:31.596Z,98373.47
2023-04-01T05:56:02.763Z,98373.38
2023-04-01T05:58:29.790Z,98375.09
2023-04-01T06:01:10.117Z,98381.78
2023-04-01T06:03:38.602Z,98375.00
2023-04-01T06:06:16.860Z,98380.44
2023-04-01T06:08:44.494Z,98387.22
2023-04-01T06:11:55.003Z,98376.81
2023-04-01T06:14:58.032Z,98383.91
2023-04-01T06:18:04.473Z,98392.06
2023-04-01T06:20:40.463Z,98391.31
2023-04-01T06:23:32.898Z,98388.28
2023-04-01T06:26:17.965Z,98396.25
2023-04-01T06:29:14.547Z,98398.44
2023-04-01T06:32:16.986Z,98400.94
2023-04-01T06:34:52.856Z,98392.91
2023-04-01T06:37:44.744Z,98390.59
2023-04-01T06:40:30.787Z,98398.59
2023-04-01T06:43:34.194Z,98391.69
2023-04-01T06:46:08.012Z,98394.28
2023-04-01T06:48:56.119Z,98396.88
2023-04-01T06:51:26.836Z,98401.06
2023-04-01T06:54:21.329Z,98394.03
2023-04-01T06:56:58.394Z,98397.63
2023-04-01T06:59:33.286Z,98395.84
2023-04-01T07:02:27.548Z,98390.47
2023-04-01T07:04:57.719Z,98396.47
2023-04-01T07:07:49.642Z,98397.25
2023-04-01T07:10:31.574Z,98407.81
2023-04-01T07:13:03.596Z,98397.09
2023-04-01T07:15:41.228Z,98403.13
2023-04-01T07:18:29.379Z,98414.00
2023-04-01T07:20:58.026Z,98406.09
2023-04-01T07:23:43.592Z,98402.84
2023-04-01T07:26:24.760Z,98408.03
2023-04-01T07:28:55.620Z,98403.00
2023-04-01T07:31:57.196Z,98400.34
2023-04-01T07:34:51.523Z,98399.56
2023-04-01T07:37:46.766Z,98394.34
2023-04-01T07:40:28.851Z,98393.41
2023-04-01T07:43:18.367Z,98400.75
2023-04-01T07:46:00.725Z,98401.06
2023-04-01T07:49:06.343Z,98400.56
2023-04-01T07:51:47.259Z,98397.31
2023-04-01T07:55:00.716Z,98412.34
2023-04-01T07:57:42.702Z,98407.41
2023-04-01T08:01:07.835Z,98407.66
2023-04-01T08:03:45.624Z,98408.44
2023-04-01T08:06:28.758Z,98412.22
2023-04-01T08:09:41.986Z,98409.44
2023-04-01T08:12:19.426Z,98416.94
2023-04-01T08:15:13.015Z,98422.16
2023-04-01T08:18:07.336Z,98420.41
2023-04-01T08:20:54.410Z,98417.53
2023-04-01T08:23:38.660Z,98419.75
2023-04-01T08:26:17.404Z,98422.34
2023-04-01T08:29:01.092Z,98418.72
2023-04-01T08:32:20.440Z,98427.03
2023-04-01T08:34:54.018Z,98422.38
2023-04-01T08:37:30.330Z,98417.97
2023-04-01T08:40:41.776Z,98417.03
2023-04-01T08:43:18.290Z,98428.78
2023-04-01T08:46:14.396Z,98430.16
2023-04-01T08:49:13.675Z,98425.63
2023-04-01T08:52:08.284Z,98427.16
2023-04-01T08:55:04.054Z,98435.13
2023-04-01T08:58:22.567Z,98435.69
2023-04-01T09:01:15.326Z,98441.47
2023-04-01T09:04:31.965Z,98438.88
2023-04-01T09:07:33.552Z,98430.22
2023-04-01T09:10:31.004Z,98443.50
2023-04-01T09:13:55.042Z,98446.22
2023-04-01T09:16:24.730Z,98447.19
2023-04-01T09:19:10.066Z,98443.47
2023-04-01T09:21:53.950Z,98442.56
2023-04-01T09:25:03.248Z,98448.47
2023-04-01T09:27:38.416Z,98448.47
2023-04-01T09:30:42.858Z,98451.75
2023-04-01T09:33:57.643Z,98437.97
2023-04-01T09:36:46.989Z,98448.91
2023-04-01T09:39:54.608Z,98451.22
2023-04-01T09:42:57.403Z,98450.59
2023-04-01T09:45:55.117Z,98465.38
2023-04-01T09:48:52.975Z,98459.38
2023-04-01T09:51:38.589Z,98447.81
2023-04-01T09:54:13.318Z,98455.81
2023-04-01T09:57:17.158Z,98448.75
2023-04-01T10:00:22.350Z,98454.69
2023-04-01T10:03:45.611Z,98459.91
2023-04-01T10:06:55.618Z,98467.03
2023-04-01T10:10:00.504Z,98467.75
2023-04-01T10:12:52.291Z,98468.66
2023-04-01T10:15:40.983Z,98471.03
2023-04-01T10:18:26.682Z,98470.06
2023-04-01T10:21:08.086Z,98477.72
2023-04-01T10:24:11.420Z,98477.72
2023-04-01T10:26:56.272Z,98482.00
2023-04-01T10:29:48.171Z,98481.00
2023-04-01T10:33:03.451Z,98480.81
2023-04-01T10:35:55.236Z,98471.47
2023-04-01T10:38:37.155Z,98470.78
2023-04-01T10:41:29.571Z,98473.63
2023-04-01T10:44:08.387Z,98479.22
2023-04-01T10:46:57.185Z,98466.00
2023-04-01T10:50:22.851Z,98470.28
2023-04-01T10:53:40.256Z,98471.94
2023-04-01T10:56:34.568Z,98468.56
2023-04-01T10:59:32.160Z,98468.09
2023-04-01T11:02:31.093Z,98476.75
2023-04-01T11:04:58.005Z,98476.31
2023-04-01T11:08:07.337Z,98480.88
2023-04-01T11:11:31.986Z,98486.31
2023-04-01T11:14:39.041Z,98479.31
2023-04-01T11:17:43.553Z,98487.16
2023-04-01T11:20:22.440Z,98483.25
2023-04-01T11:23:11.317Z,98488.75
2023-04-01T11:26:20.202Z,98484.31
2023-04-01T11:29:10.742Z,98481.59
2023-04-01T11:32:04.130Z,98482.38
2023-04-01T11:35:24.237Z,98486.41
2023-04-01T11:38:15.174Z,98493.78
2023-04-01T11:41:06.317Z,98496.53
2023-04-01T11:43:50.534Z,98494.94
2023-04-01T11:47:09.162Z,98497.69
2023-04-01T11:49:48.541Z,98489.59
2023-04-01T11:53:04.040Z,98495.63
2023-04-01T11:55:50.370Z,98489.84
2023-04-01T11:59:06.181Z,98503.72
2023-04-01T12:02:22.100Z,98503.75
2023-04-01T12:05:23.187Z,98499.97
2023-04-01T12:08:37.730Z,98493.75
2023-04-01T12:11:31.985Z,98492.25
2023-04-01T12:14:14.690Z,98499.69
2023-04-01T12:17:20.984Z,98488.00
2023-04-01T12:20:12.863Z,98492.06
2023-04-01T12:23:08.474Z,98499.28
2023-04-01T12:26:31.694Z,98499.47
2023-04-01T12:29:39.916Z,98507.97
2023-04-01T12:32:26.664Z,98507.03
2023-04-01T12:35:22.600Z,98507.72
2023-04-01T12:38:13.802Z,98512.44
2023-04-01T12:41:11.569Z,98521.84
2023-04-01T12:44:17.160Z,98513.50
2023-04-01T12:47:16.405Z,98518.81
2023-04-01T12:50:08.344Z,98515.31
2023-04-01T12:53:41.618Z,98518.78
2023-04-01T12:56:33.370Z,98522.25
2023-04-01T12:59:37.710Z,98521.75
2023-04-01T13:02:19.594Z,98532.94
2023-04-01T13:05:15.421Z,98533.06
2023-04-01T13:08:29.564Z,98523.47
2023-04-01T13:11:33.701Z,98535.50
2023-04-01T13:14:31.193Z,98539.38
2023-04-01T13:17:34.981Z,98535.06
2023-04-01T13:20:43.819Z,98536.84
2023-04-01T13:23:59.881Z,98533.38
2023-04-01T13:27:11.569Z,98542.13
2023-04-01T13:29:55.957Z,98543.09
2023-04-01T13:32:43.236Z,98545.66
2023-04-01T13:35:23.329Z,98550.91
2023-04-01T13:38:26.534Z,98551.81
2023-04-01T13:41:11.969Z,98558.97
2023-04-01T13:43:50.700Z,98560.66
2023-04-01T13:46:54.606Z,98559.91
2023-04-01T13:50:01.481Z,98564.47
2023-04-01T13:52:49.907Z,98575.09
2023-04-01T13:56:10.086Z,98576.91
2023-04-01T13:58:52.993Z,98576.03
2023-04-01T14:02:03.752Z,98583.16
2023-04-01T14:05:32.475Z,98585.78
2023-04-01T14:08:36.275Z,98590.22
2023-04-01T14:11:40.802Z,98588.47
2023-04-01T14:14:56.331Z,98592.00
2023-04-01T14:17:50.618Z,98594.66
2023-04-01T14:20:41.836Z,98599.94
2023-04-01T14:23:32.736Z,98601.72
2023-04-01T14:26:23.944Z,98602.56
2023-04-01T14:29:27.239Z,98612.25
2023-04-01T14:33:01.170Z,98608.72
2023-04-01T14:36:06.315Z,98605.19
2023-04-01T14:38:59.800Z,98608.72
2023-04-01T14:41:51.281Z,98615.78
2023-04-01T14:45:14.857Z,98618.41
2023-04-01T14:48:18.177Z,98620.13
2023-04-01T14:50:53.268Z,98618.34
2023-04-01T14:53:34.918Z,98628.06
2023-04-01T14:56:03.945Z,98633.34
2023-04-01T14:59:00.572Z,98640.38
2023-04-01T15:01:43.477Z,98638.53
2023-04-01T15:04:29.063Z,98653.50
2023-04-01T15:07:29.262Z,98650.84
2023-04-01T15:10:36.182Z,98657.94
2023-04-01T15:13:30.503Z,98659.69
2023-04-01T15:16:55.825Z,98660.53
2023-04-01T15:20:00.952Z,98664.00
2023-04-01T15:22:55.309Z,98669.28
2023-04-01T15:25:56.403Z,98679.06
2023-04-01T15:28:43.756Z,98676.41
2023-04-01T15:31:39.181Z,98679.84
2023-04-01T15:34:58.314Z,98685.84
2023-04-01T15:37:57.433Z,98692.97
2023-04-01T15:40:24.310Z,98703.50
2023-04-01T15:43:11.236Z,98695.53
2023-04-01T15:45:47.425Z,98699.13
2023-04-01T15:48:55.774Z,98711.50
2023-04-01T15:51:34.676Z,98706.19
2023-04-01T15:54:38.077Z,98698.25
2023-04-01T15:57:47.562Z,98715.84
2023-04-01T16:00:55.989Z,98718.41
2023-04-01T16:03:51.750Z,98728.06
2023-04-01T16:06:46.905Z,98732.47
2023-04-01T16:09:33.571Z,98732.34
2023-04-01T16:12:33.608Z,98742.84
2023-04-01T16:15:18.241Z,98751.63
2023-04-01T16:18:03.684Z,98754.25
2023-04-01T16:20:52.607Z,98759.31
2023-04-01T16:23:41.326Z,98757.69
2023-04-01T16:26:35.076Z,98759.47
2023-04-01T16:29:24.304Z,98775.88
2023-04-01T16:32:30.428Z,98767.28
2023-04-01T16:35:25.176Z,98774.25
2023-04-01T16:38:06.053Z,98776.84
2023-04-01T16:41:04.891Z,98788.31
2023-04-01T16:43:47.660Z,98795.41
2023-04-01T16:46:36.208Z,98796.97
2023-04-01T16:49:12.290Z,98801.25
2023-04-01T16:51:45.971Z,98792.75
2023-04-01T16:54:53.005Z,98805.84
2023-04-01T16:57:31.564Z,98819.94
2023-04-01T17:00:49.474Z,98827.91
2023-04-01T17:03:46.863Z,98834.09
2023-04-01T17:06:45.157Z,98830.41
2023-04-01T17:09:23.384Z,98839.22
2023-04-01T17:12:14.103Z,98843.59
2023-04-01T17:15:37.004Z,98850.47
2023-04-01T17:18:24.426Z,98854.03
2023-04-01T17:21:17.342Z,98857.53
2023-04-01T17:24:24.889Z,98845.97
2023-04-01T17:27:44.461Z,98860.91
2023-04-01T17:30:36.905Z,98871.44
2023-04-01T17:33:15.663Z,98872.25
2023-04-01T17:36:23.429Z,98885.19
2023-04-01T17:39:15.127Z,98890.63
2023-04-01T17:42:01.704Z,98897.69
2023-04-01T17:44:34.679Z,98895.84
2023-04-01T17:47:07.412Z,98907.19
2023-04-01T17:49:45.775Z,98907.19
2023-04-01T17:52:43.716Z,98914.00
2023-04-01T17:55:46.353Z,98917.59
2023-04-01T17:58:30.140Z,98928.91
2023-04-01T18:01:21.158Z,98921.94
2023-04-01T18:04:09.223Z,98929.75
2023-04-01T18:06:53.240Z,98924.28
2023-04-01T18:09:57.861Z,98932.25
2023-04-01T18:12:52.705Z,98941.91
2023-04-01T18:15:43.582Z,98940.16
2023-04-01T18:18:40.516Z,98940.94
2023-04-01T18:21:44.132Z,98952.09
2023-04-01T18:24:22.109Z,98957.59
2023-04-01T18:27:30.224Z,98966.28
2023-04-01T18:30:30.787Z,98971.16
2023-04-01T18:33:20.897Z,98971.28
2023-04-01T18:36:17.691Z,98988.44
2023-04-01T18:38:57.152Z,98991.81
2023-04-01T18:41:43.622Z,98989.09
2023-04-01T18:44:54.362Z,98991.69
2023-04-01T18:47:44.596Z,99000.59
2023-04-01T18:50:35.761Z,98999.66
2023-04-01T18:53:42.458Z,99008.09
2023-04-01T18:56:36.999Z,98994.31
2023-04-01T18:59:57.941Z,99001.38
2023-04-01T19:02:49.595Z,99015.13
2023-04-01T19:05:39.270Z,99018.59
2023-04-01T19:08:41.268Z,99019.72
2023-04-01T19:11:29.233Z,99024.16
2023-04-01T19:14:09.262Z,99031.06
2023-04-01T19:16:44.762Z,99026.66
2023-04-01T19:19:20.759Z,99030.09
2023-04-01T19:21:54.004Z,99028.28
2023-04-01T19:24:37.461Z,99038.50
2023-04-01T19:27:34.265Z,99045.81
2023-04-01T19:30:28.552Z,99046.69
2023-04-01T19:33:21.875Z,99047.56
2023-04-01T19:35:57.010Z,99055.47
2023-04-01T19:38:40.255Z,99057.28
2023-04-01T19:41:26.450Z,99050.75
2023-04-01T19:44:19.506Z,99060.28
2023-04-01T19:47:13.503Z,99065.06
2023-04-01T19:50:08.142Z,99064.19
2023-04-01T19:52:41.173Z,99072.63
2023-04-01T19:55:50.601Z,99075.44
2023-04-01T19:58:27.922Z,99082.47
2023-04-01T20:01:00.191Z,99082.53
2023-04-01T20:03:43.906Z,99082.63
2023-04-01T20:06:22.916Z,99089.34
2023-04-01T20:09:34.876Z,99090.25
2023-04-01T20:12:36.705Z,99095.63
2023-04-01T20:15:37.738Z,99102.59
2023-04-01T20:18:19.340Z,99088.28
2023-04-01T20:21:19.666Z,99096.19
2023-04-01T20:24:00.428Z,99102.28
2023-04-01T20:26:34.814Z,99104.72
2023-04-01T20:29:23.133Z,99107.25
2023-04-01T20:32:25.256Z,99104.53
2023-04-01T20:34:55.009Z,99115.66
2023-04-01T20:37:48.426Z,99110.63
2023-04-01T20:40:38.778Z,99118.00
2023-04-01T20:43:52.225Z,99115.97
2023-04-01T20:46:40.535Z,99115.72
2023-04-01T20:49:32.574Z,99125.47
2023-04-01T20:52:30.562Z,99120.34
2023-04-01T20:55:47.689Z,99132.31
2023-04-01T20:58:36.311Z,99133.72
2023-04-01T21:01:15.312Z,99143.53
2023-04-01T21:04:11.558Z,99141.25
2023-04-01T21:07:05.553Z,99154.75
2023-04-01T21:10:18.074Z,99162.09
2023-04-01T21:13:06.133Z,99158.41
2023-04-01T21:16:19.050Z,99160.38
2023-04-01T21:19:17.332Z,99161.88
2023-04-01T21:22:20.516Z,99162.47
2023-04-01T21:25:24.482Z,99172.41
2023-04-01T21:28:38.276Z,99176.81
2023-04-01T21:31:37.769Z,99174.66
2023-04-01T21:34:44.017Z,99178.25
2023-04-01T21:37:32.094Z,99177.53
2023-04-01T21:40:35.490Z,99190.88
2023-04-01T21:43:35.550Z,99189.06
2023-04-01T21:46:08.433Z,99194.47
2023-04-01T21:49:01.033Z,99196.31
2023-04-01T21:51:56.618Z,99206.22
2023-04-01T21:54:41.678Z,99210.63
2023-04-01T21:57:35.805Z,99215.38
2023-04-01T22:00:16.849Z,99208.97
2023-04-01T22:02:55.789Z,99222.69
2023-04-01T22:06:01.574Z,99215.47
2023-04-01T22:08:46.492Z,99214.72
2023-04-01T22:11:37.656Z,99219.75
2023-04-01T22:14:16.126Z,99210.19
2023-04-01T22:17:04.627Z,99221.50
2023-04-01T22:20:11.260Z,99231.06
2023-04-01T22:23:16.866Z,99238.31
2023-04-01T22:25:49.619Z,99234.31
2023-04-01T22:28:37.997Z,99241.56
2023-04-01T22:31:09.145Z,99236.09
2023-04-01T22:33:50.358Z,99248.25
2023-04-01T22:37:02.046Z,99244.13
2023-04-01T22:40:22.126Z,99250.94
2023-04-01T22:43:00.869Z,99263.06
2023-04-01T22:46:04.898Z,99259.84
2023-04-01T22:48:48.997Z,99242.38
2023-04-01T22:51:53.121Z,99260.28
2023-04-01T22:54:36.305Z,99263.81
2023-04-01T22:57:21.113Z,99260.16
2023-04-01T23:00:21.653Z,99269.75
2023-04-01T23:03:17.542Z,99267.72
2023-04-01T23:05:54.190Z,99255.41
2023-04-01T23:09:06.108Z,99269.72
2023-04-01T23:11:43.504Z,99267.34
2023-04-01T23:14:58.114Z,99271.19
2023-04-01T23:17:54.490Z,99266.50
2023-04-01T23:21:07.216Z,99270.03
2023-04-01T23:23:44.039Z,99277.31
2023-04-01T23:26:56.536Z,99287.91
2023-04-01T23:29:24.472Z,99284.41
2023-04-01T23:32:05.360Z,99287.56
2023-04-01T23:34:37.136Z,99289.44
2023-04-01T23:37:13.072Z,99293.34
2023-04-01T23:39:46.258Z,99296.22
2023-04-01T23:42:39.093Z,99302.72
2023-04-01T23:45:21.009Z,99306.03
2023-04-01T23:47:51.385Z,99314.56
2023-04-01T23:50:23.991Z,99314.75
2023-04-01T23:53:15.530Z,99312.88
2023-04-01T23:55:43.580Z,99317.09
2023-04-01T23:58:12.048Z,99315.28
